Time;durP1;ratioP1;P1;durP2;ratioP2;P2;SDS_P1;SDS_P2;PMS_P1;PMS_P2;Temp;Humidity;BMP_temperature;BMP_pressure;BME280_temperature;BME280_humidity;BME280_pressure;Samples;Min_cycle;Max_cycle;Signal;HPM_P1;HPM_P2
2022/12/10 00:01:07;;;;;;;10.25;6.93;;;22.10;57.50;;;;;;5089320;28;20777;-68
2022/12/10 00:03:33;;;;;;;14.57;7.45;;;22.10;57.50;;;;;;5090416;28;20078;-67
2022/12/10 00:06:04;;;;;;;12.18;7.50;;;22.10;57.40;;;;;;5091993;28;20052;-67
2022/12/10 00:08:30;;;;;;;12.35;6.07;;;22.10;57.50;;;;;;5084660;28;20036;-66
2022/12/10 00:10:57;;;;;;;11.40;6.95;;;22.10;57.50;;;;;;5070630;28;20057;-68
2022/12/10 00:13:23;;;;;;;12.70;6.25;;;22.20;57.30;;;;;;5082396;28;20090;-67
2022/12/10 00:15:48;;;;;;;11.48;6.25;;;22.10;57.40;;;;;;5092375;28;20529;-67
2022/12/10 00:18:14;;;;;;;12.65;6.35;;;22.20;57.20;;;;;;5084025;28;20044;-67
2022/12/10 00:20:40;;;;;;;13.30;6.95;;;22.10;57.10;;;;;;5089183;28;20450;-67
2022/12/10 00:23:06;;;;;;;10.52;6.53;;;22.20;57.10;;;;;;5083296;28;20127;-68
2022/12/10 00:25:33;;;;;;;13.00;6.72;;;22.20;57.10;;;;;;5092653;28;20040;-67
2022/12/10 00:27:59;;;;;;;13.50;6.78;;;22.20;57.10;;;;;;5091670;28;20073;-67
2022/12/10 00:30:25;;;;;;;10.82;6.38;;;22.30;57.10;;;;;;5072391;28;20040;-68
2022/12/10 00:32:51;;;;;;;13.75;7.30;;;22.50;57.00;;;;;;5086245;28;20103;-68
2022/12/10 00:35:17;;;;;;;11.45;5.75;;;22.40;56.60;;;;;;5090903;28;20558;-67
2022/12/10 00:37:43;;;;;;;12.18;6.43;;;22.40;56.80;;;;;;5085524;28;20036;-67
2022/12/10 00:40:10;;;;;;;12.05;6.45;;;22.50;56.90;;;;;;5071569;28;20032;-67
2022/12/10 00:42:36;;;;;;;16.75;7.60;;;22.40;56.70;;;;;;5071845;28;20045;-67
2022/12/10 00:45:04;;;;;;;11.25;6.13;;;22.50;56.70;;;;;;5091276;28;20680;-66
2022/12/10 00:47:30;;;;;;;13.57;6.55;;;22.50;56.80;;;;;;5090389;28;20027;-68
2022/12/10 00:49:56;;;;;;;11.07;6.57;;;22.50;56.70;;;;;;5090920;28;20039;-67
2022/12/10 00:52:23;;;;;;;14.43;7.40;;;22.50;56.70;;;;;;5088479;28;20040;-66
2022/12/10 00:54:49;;;;;;;11.05;7.15;;;22.50;56.70;;;;;;5091458;28;20036;-68
2022/12/10 00:57:15;;;;;;;14.23;7.00;;;22.40;56.70;;;;;;5073128;28;20056;-68
2022/12/10 00:59:41;;;;;;;21.55;6.30;;;22.40;56.90;;;;;;5085433;28;20034;-68
2022/12/10 01:02:07;;;;;;;10.60;6.20;;;22.40;57.00;;;;;;5088254;28;20164;-67
2022/12/10 01:04:33;;;;;;;10.10;6.20;;;22.40;57.00;;;;;;5084291;28;20047;-68
2022/12/10 01:06:59;;;;;;;10.80;6.20;;;22.40;56.80;;;;;;5070990;28;20115;-67
2022/12/10 01:09:28;;;;;;;13.95;6.97;;;22.40;56.70;;;;;;5088814;28;20065;-68
2022/12/10 01:11:56;;;;;;;14.75;6.97;;;22.30;56.70;;;;;;5019040;28;20039;-69
2022/12/10 01:14:29;;;;;;;12.82;5.68;;;22.40;56.70;;;;;;5071168;28;20039;-68
2022/12/10 01:16:59;;;;;;;9.63;5.15;;;22.40;56.80;;;;;;5052168;28;20388;-68
2022/12/10 01:19:25;;;;;;;12.15;6.88;;;22.50;56.80;;;;;;5053711;28;20033;-68
2022/12/10 01:21:55;;;;;;;10.57;5.25;;;22.40;56.40;;;;;;5069912;28;20036;-67
2022/12/10 01:24:23;;;;;;;15.35;7.05;;;22.40;56.50;;;;;;5062611;28;20066;-68
2022/12/10 01:26:49;;;;;;;11.65;6.72;;;22.30;56.50;;;;;;5053911;28;20028;-67
2022/12/10 01:29:16;;;;;;;13.10;7.63;;;22.40;56.70;;;;;;5034782;28;20041;-67
2022/12/10 01:31:42;;;;;;;15.82;7.35;;;22.40;56.70;;;;;;5052714;28;20460;-68
2022/12/10 01:34:11;;;;;;;13.88;6.78;;;22.40;56.80;;;;;;5070354;28;20047;-68
2022/12/10 01:36:41;;;;;;;12.10;5.85;;;22.30;56.70;;;;;;5067905;28;20551;-67
2022/12/10 01:39:09;;;;;;;11.50;6.00;;;22.40;56.70;;;;;;5048954;28;20033;-68
2022/12/10 01:41:45;;;;;;;13.63;6.65;;;22.40;56.50;;;;;;5071348;28;20060;-67
2022/12/10 01:44:11;;;;;;;13.68;6.63;;;22.50;56.70;;;;;;5058335;28;20037;-66
2022/12/10 01:46:40;;;;;;;10.93;6.35;;;22.50;56.70;;;;;;5045867;28;20145;-68
2022/12/10 01:49:08;;;;;;;15.05;6.35;;;22.50;56.60;;;;;;5070102;28;20029;-68
2022/12/10 01:51:37;;;;;;;13.10;6.13;;;22.50;56.40;;;;;;5068535;28;20040;-67
2022/12/10 01:54:08;;;;;;;14.27;6.80;;;22.50;56.40;;;;;;5069980;28;20036;-67
2022/12/10 01:56:41;;;;;;;14.07;6.85;;;22.50;56.70;;;;;;5051558;28;20043;-68
2022/12/10 01:59:08;;;;;;;9.93;5.72;;;22.50;56.50;;;;;;5032946;28;20025;-68
2022/12/10 02:02:03;;;;;;;13.63;7.88;;;22.60;56.60;;;;;;5063258;28;20039;-67
2022/12/10 02:04:34;;;;;;;12.93;6.28;;;22.60;56.70;;;;;;5052349;28;20049;-67
2022/12/10 02:07:08;;;;;;;11.85;6.93;;;22.50;56.60;;;;;;5062413;28;20039;-68
2022/12/10 02:09:43;;;;;;;10.45;6.47;;;22.60;56.50;;;;;;5050470;28;20091;-68
2022/12/10 02:12:34;;;;;;;11.73;5.32;;;22.70;56.30;;;;;;5065337;28;20120;-65
2022/12/10 02:15:07;;;;;;;12.45;5.60;;;22.70;56.30;;;;;;5034117;28;20071;-66
2022/12/10 02:17:39;;;;;;;10.70;6.20;;;22.70;56.20;;;;;;5069724;28;20037;-67
2022/12/10 02:20:31;;;;;;;8.68;6.18;;;22.80;56.20;;;;;;5069023;28;20456;-67
2022/12/10 02:22:59;;;;;;;11.05;6.22;;;22.80;56.00;;;;;;4968502;28;20733;-68
2022/12/10 02:25:33;;;;;;;9.98;5.95;;;22.70;56.20;;;;;;4968734;28;20049;-67
2022/12/10 02:28:14;;;;;;;9.48;5.63;;;22.70;56.10;;;;;;4966876;28;20066;-66
2022/12/10 02:30:42;;;;;;;14.60;6.28;;;22.70;56.20;;;;;;4968003;28;20155;-67
2022/12/10 02:33:09;;;;;;;16.05;6.63;;;22.70;56.40;;;;;;4968238;28;21071;-67
2022/12/10 02:35:38;;;;;;;10.48;6.32;;;22.50;56.60;;;;;;4951180;28;20117;-68
2022/12/10 02:38:14;;;;;;;13.30;6.85;;;22.40;56.60;;;;;;4968301;28;20502;-66
2022/12/10 02:40:49;;;;;;;13.45;6.15;;;22.30;56.80;;;;;;4952345;28;20116;-68
2022/12/10 02:43:16;;;;;;;10.60;6.63;;;22.40;56.90;;;;;;4968712;28;20114;-68
2022/12/10 02:45:45;;;;;;;16.88;6.22;;;22.30;57.20;;;;;;4951995;28;20045;-67
2022/12/10 02:48:14;;;;;;;12.23;6.55;;;22.20;57.20;;;;;;4952270;28;20046;-67
2022/12/10 02:50:42;;;;;;;11.02;6.40;;;22.20;57.20;;;;;;4952401;28;20031;-66
2022/12/10 02:53:08;;;;;;;13.45;5.95;;;22.10;57.30;;;;;;4968449;28;20641;-68
2022/12/10 02:55:59;;;;;;;14.50;7.03;;;22.20;57.40;;;;;;4952261;28;20061;-67
2022/12/10 02:58:54;;;;;;;12.70;6.65;;;22.10;57.40;;;;;;4949663;28;20039;-67
2022/12/10 03:01:39;;;;;;;12.55;6.30;;;22.10;57.50;;;;;;5059690;28;20090;-68
2022/12/10 03:04:35;;;;;;;8.70;5.85;;;22.20;57.60;;;;;;5069630;28;20036;-67
2022/12/10 03:07:10;;;;;;;13.32;6.60;;;22.10;57.60;;;;;;4997642;28;20033;-68
2022/12/10 03:09:55;;;;;;;12.05;4.93;;;22.00;57.40;;;;;;5004374;28;20050;-67
2022/12/10 03:12:35;;;;;;;10.65;6.38;;;22.00;57.40;;;;;;5027883;28;20041;-68
2022/12/10 03:15:06;;;;;;;9.45;5.72;;;22.00;57.10;;;;;;5031450;28;20037;-68
2022/12/10 03:17:32;;;;;;;9.15;6.00;;;22.10;57.30;;;;;;5036126;28;20068;-67
2022/12/10 03:20:01;;;;;;;10.30;5.95;;;22.00;57.30;;;;;;5050628;28;20355;-67
2022/12/10 03:22:29;;;;;;;10.30;5.85;;;22.00;57.40;;;;;;5044248;28;20060;-67
2022/12/10 03:24:55;;;;;;;10.88;5.55;;;22.10;57.40;;;;;;5045921;28;20045;-67
2022/12/10 03:27:24;;;;;;;10.25;5.53;;;22.00;57.20;;;;;;5050040;28;20470;-68
2022/12/10 03:29:57;;;;;;;12.98;5.78;;;22.10;57.20;;;;;;5051034;28;20199;-67
2022/12/10 03:32:26;;;;;;;9.82;5.63;;;22.30;57.00;;;;;;5034202;28;21087;-68
2022/12/10 03:34:55;;;;;;;12.10;6.45;;;22.20;56.50;;;;;;5036548;28;20049;-67
2022/12/10 03:37:23;;;;;;;11.15;6.07;;;22.40;56.50;;;;;;5046038;28;20203;-67
2022/12/10 03:39:49;;;;;;;11.80;6.22;;;22.40;56.40;;;;;;5047484;28;20484;-67
2022/12/10 03:42:15;;;;;;;9.15;6.22;;;22.30;56.50;;;;;;5051285;28;20044;-67
2022/12/10 03:44:41;;;;;;;9.45;5.85;;;22.50;56.70;;;;;;5070455;28;20056;-67
2022/12/10 03:47:14;;;;;;;11.80;5.50;;;22.20;56.80;;;;;;5088952;28;20043;-67
2022/12/10 03:49:41;;;;;;;12.82;6.88;;;22.30;56.90;;;;;;5092475;28;20127;-67
2022/12/10 03:52:08;;;;;;;9.15;6.32;;;22.50;56.70;;;;;;5087473;28;20089;-67
2022/12/10 03:54:34;;;;;;;11.18;6.75;;;22.40;56.70;;;;;;5080440;28;20112;-67
2022/12/10 03:57:00;;;;;;;10.23;5.43;;;22.30;56.70;;;;;;5092785;28;20086;-67
2022/12/10 03:59:27;;;;;;;11.00;6.07;;;22.40;56.80;;;;;;5093880;28;20028;-67
2022/12/10 04:01:53;;;;;;;9.95;6.25;;;22.20;56.70;;;;;;5092865;28;20803;-68
2022/12/10 04:04:19;;;;;;;11.18;6.53;;;22.30;56.90;;;;;;5092033;28;20051;-67
2022/12/10 04:06:45;;;;;;;11.68;6.47;;;22.20;56.70;;;;;;5088227;28;20035;-67
2022/12/10 04:09:13;;;;;;;10.95;6.63;;;22.20;56.80;;;;;;5092318;28;20393;-67
2022/12/10 04:11:39;;;;;;;12.52;7.97;;;22.10;56.80;;;;;;5072905;28;20438;-65
2022/12/10 04:16:50;;;;;;;15.93;8.23;;;22.10;57.10;;;;;;5071920;28;20116;-67
2022/12/10 04:19:17;;;;;;;17.40;7.55;;;22.00;57.10;;;;;;5069803;28;20103;-67
2022/12/10 04:27:37;;;;;;;17.42;8.18;;;21.90;57.60;;;;;;5070791;28;20047;-66
2022/12/10 04:30:05;;;;;;;13.80;7.47;;;21.90;57.60;;;;;;5071678;28;20033;-66
2022/12/10 04:32:31;;;;;;;10.05;7.70;;;21.90;57.40;;;;;;5060725;28;20033;-67
2022/12/10 04:34:57;;;;;;;14.38;8.27;;;21.90;57.40;;;;;;5035433;28;20048;-67
2022/12/10 04:37:26;;;;;;;15.25;7.20;;;21.80;57.30;;;;;;5055222;28;20029;-67
2022/12/10 04:39:52;;;;;;;11.25;6.55;;;21.80;57.50;;;;;;5060462;28;20451;-67
2022/12/10 04:42:20;;;;;;;14.00;7.72;;;21.80;57.30;;;;;;5071980;28;20038;-67
2022/12/10 04:44:46;;;;;;;13.68;7.43;;;21.70;57.30;;;;;;5035185;28;20479;-66
2022/12/10 04:47:12;;;;;;;14.27;7.45;;;21.80;57.30;;;;;;5069354;28;20029;-67
2022/12/10 04:49:39;;;;;;;12.82;7.68;;;21.80;57.30;;;;;;5071199;28;20485;-68
2022/12/10 04:52:07;;;;;;;16.65;7.93;;;21.80;57.50;;;;;;5068728;28;20064;-67
2022/12/10 04:54:33;;;;;;;12.40;8.02;;;21.70;57.40;;;;;;5071391;28;20032;-67
2022/12/10 04:56:59;;;;;;;12.55;7.50;;;21.70;57.50;;;;;;5069070;28;20086;-67
2022/12/10 04:59:25;;;;;;;17.65;6.50;;;21.70;57.50;;;;;;5051872;28;20116;-67
2022/12/10 05:01:53;;;;;;;13.38;7.43;;;21.80;57.40;;;;;;5053518;28;20049;-67
2022/12/10 05:04:19;;;;;;;15.30;8.38;;;21.80;57.30;;;;;;5048841;28;20411;-67
2022/12/10 05:06:47;;;;;;;13.60;8.95;;;21.70;57.30;;;;;;5062335;28;20082;-67
2022/12/10 05:09:13;;;;;;;16.42;8.35;;;21.90;57.40;;;;;;5066903;28;20378;-67
2022/12/10 05:11:40;;;;;;;18.58;9.05;;;21.70;57.40;;;;;;5070443;28;20128;-68
2022/12/10 05:14:06;;;;;;;13.50;8.10;;;21.80;57.40;;;;;;5069099;28;20033;-67
2022/12/10 05:16:33;;;;;;;16.48;8.13;;;21.70;57.40;;;;;;5070102;28;20099;-67
2022/12/10 05:19:00;;;;;;;13.43;8.13;;;21.80;57.40;;;;;;5070855;28;20477;-68
2022/12/10 05:24:14;;;;;;;14.45;8.02;;;21.80;57.30;;;;;;5066433;28;20056;-68
2022/12/10 05:26:40;;;;;;;15.98;8.25;;;21.70;57.20;;;;;;5071179;28;20038;-67
2022/12/10 05:29:06;;;;;;;13.75;7.72;;;21.70;57.20;;;;;;5071254;28;20094;-67
2022/12/10 05:31:32;;;;;;;14.30;8.70;;;21.80;57.20;;;;;;5070574;28;20032;-67
2022/12/10 05:33:59;;;;;;;12.13;7.53;;;21.80;57.10;;;;;;5069362;28;20043;-66
2022/12/10 05:36:27;;;;;;;14.50;7.82;;;21.60;57.10;;;;;;5069731;28;20036;-67
2022/12/10 05:38:55;;;;;;;12.82;7.43;;;21.70;57.20;;;;;;5056973;28;20551;-68
2022/12/10 05:41:23;;;;;;;14.82;8.00;;;21.60;57.10;;;;;;5071677;28;20036;-67
2022/12/10 05:43:52;;;;;;;9.23;5.95;;;21.60;57.00;;;;;;5071270;28;20033;-67
2022/12/10 05:46:24;;;;;;;12.35;7.18;;;21.60;57.00;;;;;;5063917;28;20053;-68
2022/12/10 05:48:50;;;;;;;10.70;5.97;;;21.70;57.10;;;;;;5062626;28;20040;-67
2022/12/10 05:51:19;;;;;;;13.27;7.13;;;21.50;56.90;;;;;;5067272;28;20036;-68
2022/12/10 05:53:45;;;;;;;10.13;6.68;;;21.70;57.10;;;;;;5069190;28;20036;-68
2022/12/10 05:56:14;;;;;;;9.18;5.90;;;21.60;56.80;;;;;;5068277;28;20032;-67
2022/12/10 05:58:42;;;;;;;15.32;6.13;;;21.70;56.70;;;;;;5060527;28;20387;-66
2022/12/10 06:01:14;;;;;;;10.48;6.22;;;21.70;56.50;;;;;;5053512;28;20037;-68
2022/12/10 06:03:40;;;;;;;10.98;6.05;;;21.90;56.30;;;;;;5062523;28;20040;-67
2022/12/10 06:06:06;;;;;;;15.77;6.70;;;21.90;56.40;;;;;;5064407;28;20041;-67
2022/12/10 06:08:34;;;;;;;11.02;6.72;;;21.90;56.40;;;;;;5054160;28;20041;-67
2022/12/10 06:11:09;;;;;;;15.35;7.13;;;21.80;56.50;;;;;;5051181;28;20079;-68
2022/12/10 06:13:35;;;;;;;16.88;6.32;;;21.70;56.90;;;;;;5051877;28;20028;-67
2022/12/10 06:16:10;;;;;;;12.75;6.20;;;21.60;56.90;;;;;;5058651;28;20064;-67
2022/12/10 06:18:37;;;;;;;13.32;6.80;;;21.60;57.00;;;;;;5069912;28;20021;-68
2022/12/10 06:21:07;;;;;;;10.73;6.75;;;21.40;57.00;;;;;;5068858;28;20029;-67
2022/12/10 06:23:35;;;;;;;12.00;7.47;;;21.50;57.10;;;;;;5064670;28;20044;-67
2022/12/10 06:26:22;;;;;;;11.55;6.55;;;21.50;57.20;;;;;;5050732;28;20079;-67
2022/12/10 06:28:49;;;;;;;12.82;7.85;;;21.40;57.20;;;;;;5062952;28;20040;-67
2022/12/10 06:31:15;;;;;;;11.18;6.40;;;21.50;57.10;;;;;;5060867;28;20039;-68
2022/12/10 06:33:42;;;;;;;11.80;6.43;;;21.60;57.00;;;;;;5063653;28;20037;-68
2022/12/10 06:36:10;;;;;;;14.05;6.40;;;21.50;56.80;;;;;;5066314;28;20056;-68
2022/12/10 06:38:37;;;;;;;10.35;6.13;;;21.50;56.80;;;;;;5068517;28;20040;-68
2022/12/10 06:41:11;;;;;;;12.60;8.55;;;21.50;56.80;;;;;;5033197;28;20098;-68
2022/12/10 06:43:37;;;;;;;16.55;10.02;;;21.70;60.00;;;;;;5068991;28;20029;-68
2022/12/10 06:46:11;;;;;;;15.80;8.70;;;21.60;61.70;;;;;;5062622;28;20100;-68
2022/12/10 06:48:37;;;;;;;17.15;8.15;;;21.60;60.90;;;;;;5066218;28;20032;-69
2022/12/10 06:51:04;;;;;;;14.35;9.23;;;21.60;60.70;;;;;;5070782;28;20478;-67
2022/12/10 06:53:33;;;;;;;15.25;9.90;;;21.70;61.20;;;;;;5068915;28;20093;-67
2022/12/10 06:56:00;;;;;;;22.30;11.52;;;21.70;61.10;;;;;;5071955;28;20560;-67
2022/12/10 06:58:31;;;;;;;20.77;11.00;;;21.60;60.60;;;;;;5066664;28;20124;-67
2022/12/10 07:01:08;;;;;;;21.73;10.15;;;21.70;61.10;;;;;;5066052;28;20058;-67
2022/12/10 07:03:35;;;;;;;21.85;11.95;;;21.80;60.50;;;;;;5062961;28;20040;-68
2022/12/10 07:06:02;;;;;;;18.88;10.18;;;21.70;61.00;;;;;;5063237;28;20021;-68
2022/12/10 07:08:28;;;;;;;18.63;10.95;;;21.70;60.80;;;;;;5068537;28;20120;-65
2022/12/10 07:10:55;;;;;;;9.98;5.75;;;21.60;59.20;;;;;;5064586;28;20470;-67
2022/12/10 07:13:21;;;;;;;11.75;6.90;;;22.00;65.30;;;;;;5066636;28;20021;-70
2022/12/10 07:15:47;;;;;;;11.05;5.15;;;22.70;66.60;;;;;;5043946;28;20392;-67
2022/12/10 07:18:13;;;;;;;11.35;4.45;;;23.30;64.20;;;;;;5073442;28;20036;-66
2022/12/10 07:20:39;;;;;;;7.13;5.22;;;23.60;66.90;;;;;;5063001;28;20032;-67
2022/12/10 07:23:06;;;;;;;8.60;6.00;;;23.90;67.60;;;;;;5065748;28;20086;-66
2022/12/10 07:25:33;;;;;;;7.57;4.60;;;24.30;67.30;;;;;;5067758;28;20436;-68
2022/12/10 07:27:59;;;;;;;9.10;5.38;;;24.60;68.00;;;;;;5063223;28;20162;-69
2022/12/10 07:30:25;;;;;;;8.32;5.97;;;24.70;46.70;;;;;;5039615;28;20049;-68
2022/12/10 07:32:51;;;;;;;11.32;6.47;;;24.50;44.70;;;;;;5048180;28;20029;-70
2022/12/10 07:35:17;;;;;;;10.27;6.40;;;24.30;46.30;;;;;;5064193;28;20028;-67
2022/12/10 07:37:43;;;;;;;7.95;4.82;;;24.30;46.20;;;;;;5071701;28;20031;-68
2022/12/10 07:40:10;;;;;;;16.73;7.75;;;24.10;46.90;;;;;;5071607;28;20028;-67
2022/12/10 07:42:36;;;;;;;11.25;6.90;;;24.00;45.90;;;;;;5058185;28;20033;-70
2022/12/10 07:45:03;;;;;;;14.57;6.93;;;24.10;43.80;;;;;;5040821;28;20104;-67
2022/12/10 07:47:29;;;;;;;7.00;5.20;;;24.10;43.10;;;;;;5061182;28;20055;-67
2022/12/10 07:49:55;;;;;;;8.38;5.85;;;24.00;43.80;;;;;;5021134;28;20474;-67
2022/12/10 07:52:21;;;;;;;8.18;5.65;;;24.10;43.10;;;;;;5071720;28;20436;-67
2022/12/10 07:54:47;;;;;;;16.27;7.10;;;23.90;41.60;;;;;;5072021;28;20048;-68
2022/12/10 07:57:14;;;;;;;10.75;7.47;;;23.90;52.10;;;;;;5065857;28;20062;-67
2022/12/10 07:59:39;;;;;;;9.20;6.10;;;23.90;50.90;;;;;;5056480;28;20064;-68
2022/12/10 08:02:05;;;;;;;12.25;7.28;;;23.80;50.00;;;;;;5066531;28;20821;-65
2022/12/10 08:04:31;;;;;;;12.10;6.75;;;23.70;52.00;;;;;;5067471;28;20037;-66
2022/12/10 08:06:58;;;;;;;12.50;7.18;;;23.60;53.30;;;;;;5060351;28;20035;-68
2022/12/10 08:09:24;;;;;;;10.75;6.28;;;23.60;53.60;;;;;;5072265;28;20036;-67
2022/12/10 08:11:50;;;;;;;15.98;7.40;;;23.50;55.80;;;;;;5056212;28;20051;-67
2022/12/10 08:14:15;;;;;;;16.42;6.75;;;23.60;55.00;;;;;;5069822;28;20146;-67
2022/12/10 08:16:41;;;;;;;10.38;6.78;;;23.60;55.30;;;;;;5068059;28;20086;-68
2022/12/10 08:19:09;;;;;;;11.93;6.78;;;23.60;55.30;;;;;;5061857;28;20025;-65
2022/12/10 08:21:35;;;;;;;12.57;6.97;;;23.60;54.70;;;;;;5054943;28;20052;-66
2022/12/10 08:24:01;;;;;;;9.88;6.10;;;23.70;53.70;;;;;;5016421;28;20053;-67
2022/12/10 08:26:30;;;;;;;14.48;8.38;;;23.60;56.80;;;;;;5057101;28;20560;-67
2022/12/10 08:28:57;;;;;;;10.55;6.53;;;23.60;55.90;;;;;;5047276;28;20075;-67
2022/12/10 08:31:24;;;;;;;11.75;6.85;;;23.70;56.20;;;;;;5052544;28;20043;-67
2022/12/10 08:33:50;;;;;;;14.75;7.10;;;23.70;54.40;;;;;;5053148;28;20068;-66
2022/12/10 08:36:18;;;;;;;9.50;6.15;;;23.60;55.50;;;;;;5064347;28;20508;-67
2022/12/10 08:38:44;;;;;;;10.60;7.30;;;23.70;56.90;;;;;;5064539;28;20057;-67
2022/12/10 08:41:17;;;;;;;9.20;6.88;;;23.60;57.00;;;;;;5066270;28;20028;-66
2022/12/10 08:43:43;;;;;;;12.63;7.47;;;23.50;56.70;;;;;;5072132;28;20040;-67
2022/12/10 08:46:10;;;;;;;11.68;7.03;;;23.70;57.10;;;;;;5072345;28;20031;-66
2022/12/10 08:48:36;;;;;;;9.95;6.60;;;23.60;56.90;;;;;;5054895;28;20037;-67
2022/12/10 08:51:04;;;;;;;13.45;7.90;;;23.60;56.80;;;;;;5059531;28;20058;-65
2022/12/10 08:53:31;;;;;;;14.15;7.63;;;23.70;57.20;;;;;;5070043;28;20047;-67
2022/12/10 08:55:57;;;;;;;15.45;7.75;;;23.80;57.40;;;;;;5072098;28;20284;-67
2022/12/10 08:58:23;;;;;;;15.63;7.43;;;23.60;57.60;;;;;;5070402;28;20105;-65
2022/12/10 09:00:49;;;;;;;13.30;7.85;;;23.60;57.70;;;;;;5070688;28;20109;-67
2022/12/10 09:03:16;;;;;;;13.57;7.18;;;23.60;57.90;;;;;;5071527;28;20045;-67
2022/12/10 09:05:42;;;;;;;11.80;7.35;;;23.70;57.90;;;;;;5051631;28;20403;-67
2022/12/10 09:08:09;;;;;;;11.75;7.25;;;23.60;57.90;;;;;;5071055;28;20033;-64
2022/12/10 09:10:39;;;;;;;11.07;7.28;;;23.60;58.00;;;;;;5056945;28;20099;-67
2022/12/10 09:13:05;;;;;;;16.52;8.77;;;23.50;58.20;;;;;;5054966;28;20124;-67
2022/12/10 09:15:31;;;;;;;13.52;8.30;;;23.60;58.10;;;;;;5051759;28;20043;-67
2022/12/10 09:17:57;;;;;;;19.45;11.90;;;23.60;58.20;;;;;;5051880;28;20037;-66
2022/12/10 09:20:23;;;;;;;21.48;10.73;;;23.60;58.30;;;;;;5051650;28;20052;-66
2022/12/10 09:22:49;;;;;;;15.82;7.72;;;23.60;58.40;;;;;;5052343;28;20024;-66
2022/12/10 09:25:16;;;;;;;13.98;7.63;;;23.60;58.40;;;;;;5033986;28;20059;-67
2022/12/10 09:27:43;;;;;;;12.43;7.60;;;23.60;58.20;;;;;;5051514;28;20459;-66
2022/12/10 09:30:11;;;;;;;14.35;8.20;;;23.60;58.20;;;;;;5051860;28;20037;-67
2022/12/10 09:32:37;;;;;;;17.90;8.93;;;23.60;58.20;;;;;;5060237;28;20516;-66
2022/12/10 09:35:04;;;;;;;16.92;8.15;;;23.50;58.40;;;;;;5071389;28;20047;-67
2022/12/10 09:37:30;;;;;;;14.32;9.70;;;23.50;58.50;;;;;;5032663;28;20685;-67
2022/12/10 09:39:56;;;;;;;13.80;7.90;;;23.40;58.60;;;;;;5071509;28;20123;-66
2022/12/10 09:42:21;;;;;;;13.85;7.90;;;23.40;58.70;;;;;;5069969;28;20128;-66
2022/12/10 09:45:24;;;;;;;11.73;7.45;;;23.30;58.70;;;;;;5051180;28;20055;-67
2022/12/10 09:48:20;;;;;;;13.18;6.63;;;23.40;58.80;;;;;;4987286;28;20046;-67
2022/12/10 09:51:09;;;;;;;11.35;6.55;;;23.30;59.10;;;;;;4969850;28;20074;-67
2022/12/10 09:53:37;;;;;;;11.70;7.07;;;23.30;58.90;;;;;;4989009;28;20475;-67
2022/12/10 09:56:04;;;;;;;15.43;7.60;;;23.30;58.80;;;;;;4989315;28;20038;-66
2022/12/10 09:58:30;;;;;;;12.32;6.90;;;23.40;58.70;;;;;;4989429;28;20042;-67
2022/12/10 10:01:02;;;;;;;15.60;7.85;;;23.30;58.70;;;;;;4987501;28;20026;-67
2022/12/10 10:03:34;;;;;;;12.90;8.02;;;23.30;58.80;;;;;;4988978;28;20592;-67
2022/12/10 10:06:04;;;;;;;13.60;8.30;;;23.20;58.90;;;;;;4988811;28;20038;-66
2022/12/10 10:08:34;;;;;;;12.48;8.80;;;23.30;58.90;;;;;;4986927;28;20038;-65
2022/12/10 10:11:01;;;;;;;14.32;7.72;;;23.20;58.60;;;;;;5008271;28;20045;-66
2022/12/10 10:13:41;;;;;;;12.63;8.10;;;23.20;59.00;;;;;;5028061;28;20120;-66
2022/12/10 10:16:27;;;;;;;14.68;9.15;;;23.10;59.10;;;;;;5026188;28;20536;-66
2022/12/10 10:18:53;;;;;;;15.85;9.68;;;23.10;59.00;;;;;;4994790;28;20482;-65
2022/12/10 10:21:26;;;;;;;17.17;9.40;;;23.10;59.00;;;;;;5025303;28;20053;-66
2022/12/10 10:23:53;;;;;;;15.63;9.75;;;23.00;59.10;;;;;;5028067;28;20080;-67
2022/12/10 10:26:19;;;;;;;14.60;9.27;;;23.00;59.30;;;;;;5090585;28;20032;-67
2022/12/10 10:28:48;;;;;;;11.18;7.35;;;23.10;59.70;;;;;;5091076;28;20036;-67
2022/12/10 10:31:24;;;;;;;14.80;7.68;;;23.10;59.60;;;;;;5089390;28;20661;-66
2022/12/10 10:33:59;;;;;;;15.25;8.48;;;23.20;59.20;;;;;;5090499;28;20051;-66
2022/12/10 10:36:27;;;;;;;13.20;8.07;;;23.20;59.00;;;;;;5090747;28;20073;-64
2022/12/10 10:38:54;;;;;;;16.45;9.32;;;23.20;59.10;;;;;;5089651;28;20036;-66
2022/12/10 10:41:20;;;;;;;13.60;9.18;;;23.20;59.10;;;;;;5037922;28;20131;-66
2022/12/10 10:43:48;;;;;;;19.17;8.80;;;23.20;59.10;;;;;;5079172;28;20056;-66
2022/12/10 10:46:21;;;;;;;18.60;8.57;;;23.10;59.10;;;;;;5069997;28;20031;-66
2022/12/10 10:48:48;;;;;;;13.32;7.55;;;23.10;59.20;;;;;;5070581;28;20036;-67
2022/12/10 10:51:18;;;;;;;16.75;8.95;;;23.20;59.20;;;;;;5050761;28;20120;-66
2022/12/10 10:53:54;;;;;;;13.65;8.07;;;23.20;59.10;;;;;;5070194;28;20490;-67
2022/12/10 10:56:26;;;;;;;12.90;7.63;;;23.10;59.00;;;;;;5069275;28;20036;-66
2022/12/10 10:59:06;;;;;;;14.98;9.43;;;23.10;59.20;;;;;;5087419;28;20046;-67
2022/12/10 11:01:53;;;;;;;14.65;8.15;;;23.20;59.00;;;;;;5090179;28;20089;-65
2022/12/10 11:04:58;;;;;;;15.02;9.35;;;23.10;59.10;;;;;;5086778;28;20044;-66
2022/12/10 11:07:33;;;;;;;13.52;7.70;;;23.10;59.10;;;;;;5070615;28;20032;-66
2022/12/10 11:10:00;;;;;;;14.77;8.02;;;23.10;59.30;;;;;;5076524;28;20401;-67
2022/12/10 11:12:38;;;;;;;13.93;8.88;;;23.20;59.10;;;;;;5050269;28;20060;-67
2022/12/10 11:15:22;;;;;;;18.75;9.40;;;23.10;58.90;;;;;;5050151;28;20029;-66
2022/12/10 11:17:53;;;;;;;17.63;9.07;;;23.10;58.80;;;;;;4998583;28;20047;-65
2022/12/10 11:20:29;;;;;;;13.88;9.57;;;23.20;58.80;;;;;;5032247;28;20043;-66
2022/12/10 11:23:09;;;;;;;21.58;10.10;;;23.20;58.90;;;;;;5051250;28;20139;-67
2022/12/10 11:25:35;;;;;;;17.00;9.40;;;23.20;58.70;;;;;;5050152;28;20025;-65
2022/12/10 11:28:05;;;;;;;13.85;8.43;;;23.10;58.70;;;;;;5050546;28;20382;-65
2022/12/10 11:30:39;;;;;;;17.58;9.30;;;23.00;58.80;;;;;;5032408;28;20394;-66
2022/12/10 11:33:29;;;;;;;13.52;8.45;;;23.00;58.70;;;;;;5050076;28;20025;-66
2022/12/10 11:36:23;;;;;;;19.13;8.90;;;23.20;58.70;;;;;;5058263;28;20024;-64
2022/12/10 11:39:07;;;;;;;16.55;8.45;;;23.20;58.50;;;;;;5069248;28;20472;-69
2022/12/10 11:41:41;;;;;;;10.85;7.28;;;23.30;57.90;;;;;;5066259;28;20067;-68
2022/12/10 11:44:23;;;;;;;12.93;7.22;;;23.30;50.80;;;;;;5066398;28;20040;-69
2022/12/10 11:47:13;;;;;;;32.67;7.47;;;23.30;49.30;;;;;;5073589;28;20020;-70
2022/12/10 11:49:52;;;;;;;14.73;9.40;;;23.30;48.30;;;;;;5069475;28;20401;-68
2022/12/10 11:52:24;;;;;;;12.68;7.18;;;23.30;49.80;;;;;;5065255;28;20032;-69
2022/12/10 11:55:37;;;;;;;15.20;8.30;;;23.50;48.40;;;;;;5066690;28;20717;-67
2022/12/10 11:58:24;;;;;;;11.38;6.40;;;23.50;48.40;;;;;;4974116;28;20395;-69
2022/12/10 12:01:19;;;;;;;10.73;7.10;;;23.60;48.70;;;;;;4987323;28;20462;-71
2022/12/10 12:04:06;;;;;;;12.32;6.35;;;23.80;52.80;;;;;;4928258;29;20058;-70
2022/12/10 12:06:58;;;;;;;13.48;7.07;;;24.10;50.00;;;;;;4931716;29;20040;-68
2022/12/10 12:09:38;;;;;;;9.48;5.13;;;24.20;48.80;;;;;;4893277;29;20032;-72
2022/12/10 12:12:22;;;;;;;8.13;6.35;;;24.30;48.30;;;;;;4895227;29;20124;-72
2022/12/10 12:15:17;;;;;;;10.13;6.57;;;24.40;45.30;;;;;;4895397;29;20079;-72
2022/12/10 12:17:52;;;;;;;11.05;6.88;;;24.30;44.50;;;;;;4895534;29;20416;-72
2022/12/10 12:20:27;;;;;;;18.77;8.27;;;24.20;43.90;;;;;;4890783;29;21880;-70
2022/12/10 12:23:01;;;;;;;15.40;7.47;;;24.10;43.90;;;;;;4878325;29;20192;-72
2022/12/10 12:25:36;;;;;;;8.60;7.00;;;24.10;44.40;;;;;;4895665;29;20064;-74
2022/12/10 12:28:19;;;;;;;10.13;7.15;;;24.00;43.60;;;;;;4893883;29;20139;-72
2022/12/10 12:30:46;;;;;;;;;;;23.90;44.10;;;;;;4894826;29;20048;-72
2022/12/10 12:33:29;;;;;;;13.50;8.25;;;24.00;44.10;;;;;;4894029;29;19996;-73
2022/12/10 12:36:06;;;;;;;14.63;8.48;;;23.90;44.60;;;;;;4906023;29;20036;-73
2022/12/10 12:38:46;;;;;;;14.45;7.72;;;23.90;45.10;;;;;;4912847;29;20030;-71
2022/12/10 12:41:47;;;;;;;18.25;9.38;;;24.00;44.50;;;;;;4934410;28;20134;-73
2022/12/10 12:44:19;;;;;;;16.30;10.05;;;24.00;52.80;;;;;;4912924;29;20485;-69
2022/12/10 12:46:47;;;;;;;17.30;8.90;;;24.00;54.00;;;;;;4975953;28;20057;-70
2022/12/10 12:49:34;;;;;;;14.43;9.90;;;24.10;54.40;;;;;;4984185;28;20221;-69
2022/12/10 12:52:03;;;;;;;16.67;10.02;;;24.10;54.70;;;;;;4971526;28;20088;-71
2022/12/10 12:54:29;;;;;;;19.25;10.27;;;24.10;54.80;;;;;;4987707;28;20438;-70
2022/12/10 12:56:58;;;;;;;15.07;10.07;;;24.20;55.00;;;;;;4996025;28;20042;-70
2022/12/10 12:59:33;;;;;;;18.05;10.35;;;24.10;55.20;;;;;;4990840;28;20049;-72
2022/12/10 13:02:16;;;;;;;15.93;10.27;;;24.10;55.10;;;;;;4994302;28;20038;-70
2022/12/10 13:04:43;;;;;;;19.08;9.85;;;24.20;55.40;;;;;;4992510;28;20034;-70
2022/12/10 13:07:15;;;;;;;17.17;10.90;;;24.20;55.60;;;;;;4999672;28;20076;-71